createdAt,value
2023-09-16T00:00:23.702Z,195.17
2023-09-16T00:01:25.829Z,193.67
2023-09-16T00:02:27.912Z,193.67
2023-09-16T00:03:30.028Z,195.00
2023-09-16T00:04:32.107Z,196.17
2023-09-16T00:05:35.524Z,197.33
2023-09-16T00:06:37.605Z,198.33
2023-09-16T00:07:39.630Z,199.00
2023-09-16T00:08:43.512Z,199.33
2023-09-16T00:09:45.559Z,201.00
2023-09-16T00:10:49.043Z,203.67
2023-09-16T00:11:51.270Z,207.83
2023-09-16T00:12:53.334Z,213.50
2023-09-16T00:13:55.936Z,216.17
2023-09-16T00:14:57.965Z,220.00
2023-09-16T00:16:00.044Z,220.00
2023-09-16T00:17:05.279Z,219.17
2023-09-16T00:18:07.442Z,219.00
2023-09-16T00:19:11.027Z,220.67
2023-09-16T00:20:16.400Z,224.50
2023-09-16T00:21:19.118Z,224.83
2023-09-16T00:22:22.743Z,225.17
2023-09-16T00:23:24.732Z,226.00
2023-09-16T00:24:26.759Z,225.00
2023-09-16T00:25:28.797Z,225.00
2023-09-16T00:26:30.768Z,224.67
2023-09-16T00:27:32.775Z,224.00
2023-09-16T00:28:36.668Z,222.83
2023-09-16T00:29:38.694Z,221.67
2023-09-16T00:30:43.930Z,221.00
2023-09-16T00:31:46.216Z,221.00
2023-09-16T00:32:48.295Z,222.00
2023-09-16T00:33:50.702Z,221.33
2023-09-16T00:34:52.777Z,216.50
2023-09-16T00:35:54.807Z,211.83
2023-09-16T00:36:56.852Z,210.83
2023-09-16T00:37:58.875Z,207.67
2023-09-16T00:39:00.893Z,205.83
2023-09-16T00:40:03.265Z,206.33
2023-09-16T00:41:05.300Z,205.50
2023-09-16T00:42:07.318Z,203.00
2023-09-16T00:43:09.318Z,199.17
2023-09-16T00:44:11.835Z,200.00
2023-09-16T00:45:15.490Z,201.33
2023-09-16T00:46:17.810Z,202.00
2023-09-16T00:47:19.853Z,202.83
2023-09-16T00:48:21.867Z,202.83
2023-09-16T00:49:23.892Z,202.00
2023-09-16T00:50:25.895Z,201.33
2023-09-16T00:51:28.024Z,200.83
2023-09-16T00:52:30.682Z,199.50
2023-09-16T00:53:32.688Z,197.33
2023-09-16T00:54:35.048Z,197.33
2023-09-16T00:55:37.034Z,202.83
2023-09-16T00:56:39.054Z,207.83
2023-09-16T00:57:42.004Z,211.00
2023-09-16T00:58:44.028Z,211.00
2023-09-16T00:59:46.015Z,210.17
2023-09-16T01:00:48.093Z,210.00
2023-09-16T01:01:53.318Z,209.17
2023-09-16T01:02:55.658Z,209.00
2023-09-16T01:03:57.736Z,209.00
2023-09-16T01:04:59.892Z,209.00
2023-09-16T01:06:02.020Z,209.00
2023-09-16T01:07:04.220Z,209.00
2023-09-16T01:08:06.350Z,210.33
2023-09-16T01:09:09.890Z,215.50
2023-09-16T01:10:11.946Z,220.17
2023-09-16T01:11:14.022Z,218.17
2023-09-16T01:12:16.026Z,215.83
2023-09-16T01:13:18.035Z,211.33
2023-09-16T01:14:20.055Z,208.83
2023-09-16T01:15:23.780Z,207.33
2023-09-16T01:16:37.390Z,207.00
2023-09-16T01:17:43.811Z,207.17
2023-09-16T01:18:49.023Z,213.50
2023-09-16T01:19:58.349Z,231.50
2023-09-16T01:21:00.375Z,234.17
2023-09-16T01:22:02.514Z,231.00
2023-09-16T01:23:04.589Z,228.67
2023-09-16T01:24:24.906Z,226.67
2023-09-16T01:25:27.987Z,221.67
2023-09-16T01:26:29.973Z,212.17
2023-09-16T01:27:31.958Z,208.00
2023-09-16T01:28:33.994Z,208.00
2023-09-16T01:29:36.052Z,208.83
2023-09-16T01:30:39.635Z,214.17
2023-09-16T01:31:42.387Z,215.83
2023-09-16T01:32:48.423Z,216.17
2023-09-16T01:33:50.652Z,221.17
2023-09-16T01:34:54.208Z,223.83
2023-09-16T01:36:00.150Z,223.00
2023-09-16T01:37:02.215Z,222.50
2023-09-16T01:38:04.728Z,220.67
2023-09-16T01:39:06.803Z,218.17
2023-09-16T01:40:09.335Z,214.83
2023-09-16T01:41:11.399Z,212.17
2023-09-16T01:42:13.407Z,211.50
2023-09-16T01:43:16.478Z,210.50
2023-09-16T01:44:18.464Z,209.50
2023-09-16T01:45:20.436Z,207.83
2023-09-16T01:46:22.458Z,206.33
2023-09-16T01:47:24.562Z,203.83
2023-09-16T01:48:36.586Z,202.83
2023-09-16T01:49:42.723Z,200.83
2023-09-16T01:50:46.136Z,198.50
2023-09-16T01:51:48.181Z,194.67
2023-09-16T01:52:50.209Z,193.00
2023-09-16T01:53:52.234Z,193.67
2023-09-16T01:54:54.305Z,193.00
2023-09-16T01:55:56.319Z,193.00
2023-09-16T01:56:58.528Z,193.00
2023-09-16T01:58:00.544Z,193.33
2023-09-16T01:59:02.899Z,194.00
2023-09-16T02:00:06.629Z,194.00
2023-09-16T02:01:09.697Z,194.00
2023-09-16T02:02:12.537Z,194.67
2023-09-16T02:03:14.548Z,195.50
2023-09-16T02:04:16.578Z,196.00
2023-09-16T02:05:18.588Z,196.00
2023-09-16T02:06:20.605Z,198.00
2023-09-16T02:07:22.623Z,199.50
2023-09-16T02:08:24.645Z,200.17
2023-09-16T02:09:26.623Z,201.33
2023-09-16T02:10:29.504Z,202.00
2023-09-16T02:11:32.335Z,205.50
2023-09-16T02:12:34.767Z,212.33
2023-09-16T02:13:37.223Z,213.83
2023-09-16T02:14:40.207Z,213.00
2023-09-16T02:15:47.085Z,214.50
2023-09-16T02:16:49.197Z,215.00
2023-09-16T02:17:51.446Z,215.00
2023-09-16T02:18:53.499Z,215.17
2023-09-16T02:19:55.516Z,214.50
2023-09-16T02:20:57.482Z,214.00
2023-09-16T02:21:59.507Z,214.00
2023-09-16T02:23:03.004Z,213.67
2023-09-16T02:24:05.627Z,213.00
2023-09-16T02:25:07.902Z,213.00
2023-09-16T02:26:09.911Z,214.00
2023-09-16T02:27:13.539Z,215.00
2023-09-16T02:28:15.819Z,214.00
2023-09-16T02:29:17.840Z,211.83
2023-09-16T02:30:19.812Z,210.17
2023-09-16T02:31:21.871Z,210.00
2023-09-16T02:32:23.960Z,210.50
2023-09-16T02:33:26.086Z,211.00
2023-09-16T02:34:28.434Z,210.50
2023-09-16T02:35:30.411Z,208.83
2023-09-16T02:36:32.411Z,207.50
2023-09-16T02:37:34.409Z,205.83
2023-09-16T02:38:36.372Z,203.33
2023-09-16T02:39:38.384Z,200.33
2023-09-16T02:40:43.426Z,198.00
2023-09-16T02:41:45.399Z,197.00
2023-09-16T02:42:47.412Z,197.33
2023-09-16T02:43:49.480Z,196.33
2023-09-16T02:44:52.122Z,195.67
2023-09-16T02:45:57.107Z,196.00
2023-09-16T02:46:59.141Z,196.00
2023-09-16T02:48:01.158Z,194.83
2023-09-16T02:49:04.423Z,194.00
2023-09-16T02:50:08.624Z,194.00
2023-09-16T02:51:10.982Z,194.00
2023-09-16T02:52:13.055Z,193.00
2023-09-16T02:53:15.080Z,190.33
2023-09-16T02:54:17.438Z,188.00
2023-09-16T02:55:19.454Z,185.83
2023-09-16T02:56:21.509Z,184.50
2023-09-16T02:57:23.485Z,184.00
2023-09-16T02:58:25.469Z,183.00
2023-09-16T02:59:27.434Z,183.00
2023-09-16T03:00:29.429Z,183.83
2023-09-16T03:01:31.454Z,184.33
2023-09-16T03:02:33.815Z,185.00
2023-09-16T03:03:36.488Z,185.17
2023-09-16T03:04:38.546Z,186.00
2023-09-16T03:05:46.672Z,186.67
2023-09-16T03:06:49.525Z,187.50
2023-09-16T03:07:51.530Z,188.00
2023-09-16T03:08:53.963Z,188.50
2023-09-16T03:09:56.233Z,189.00
2023-09-16T03:11:04.880Z,189.17
2023-09-16T03:12:06.919Z,190.00
2023-09-16T03:13:08.967Z,190.50
2023-09-16T03:14:11.011Z,191.00
2023-09-16T03:15:13.009Z,191.83
2023-09-16T03:16:22.481Z,191.00
2023-09-16T03:17:24.561Z,191.17
2023-09-16T03:18:26.597Z,192.00
2023-09-16T03:19:29.668Z,192.67
2023-09-16T03:20:31.717Z,193.50
2023-09-16T03:21:33.761Z,194.00
2023-09-16T03:22:35.810Z,194.00
2023-09-16T03:23:37.848Z,194.00
2023-09-16T03:24:40.186Z,194.00
2023-09-16T03:25:42.190Z,194.00
2023-09-16T03:26:44.240Z,194.00
2023-09-16T03:27:46.344Z,194.00
2023-09-16T03:28:48.701Z,194.00
2023-09-16T03:29:51.008Z,194.17
2023-09-16T03:30:53.107Z,193.67
2023-09-16T03:31:55.353Z,193.00
2023-09-16T03:32:57.501Z,193.00
2023-09-16T03:33:59.644Z,191.83
2023-09-16T03:35:01.704Z,188.50
2023-09-16T03:36:03.932Z,183.33
2023-09-16T03:37:05.940Z,181.00
2023-09-16T03:38:07.954Z,179.83
2023-09-16T03:39:09.972Z,178.17
2023-09-16T03:40:11.978Z,179.50
2023-09-16T03:41:14.373Z,181.83
2023-09-16T03:42:16.365Z,183.50
2023-09-16T03:43:19.350Z,184.17
2023-09-16T03:44:21.356Z,185.50
2023-09-16T03:45:29.696Z,186.17
2023-09-16T03:46:33.259Z,186.17
2023-09-16T03:47:35.388Z,186.00
2023-09-16T03:48:37.468Z,186.00
2023-09-16T03:49:39.502Z,184.67
2023-09-16T03:50:41.510Z,182.83
2023-09-16T03:51:43.517Z,180.00
2023-09-16T03:52:45.493Z,177.67
2023-09-16T03:53:48.464Z,176.50
2023-09-16T03:54:50.484Z,176.00
2023-09-16T03:55:55.440Z,176.00
2023-09-16T03:56:57.410Z,174.50
2023-09-16T03:58:01.646Z,173.67
2023-09-16T03:59:03.890Z,173.00
2023-09-16T04:00:07.895Z,172.50
2023-09-16T04:01:09.885Z,172.00
2023-09-16T04:02:11.901Z,170.67
2023-09-16T04:03:13.913Z,170.00
2023-09-16T04:04:15.978Z,170.17
2023-09-16T04:05:18.028Z,171.00
2023-09-16T04:06:20.027Z,171.00
2023-09-16T04:07:23.506Z,171.33
2023-09-16T04:08:30.687Z,172.00
2023-09-16T04:09:40.042Z,172.00
2023-09-16T04:10:42.075Z,172.83
2023-09-16T04:11:44.082Z,173.00
2023-09-16T04:12:46.699Z,173.83
2023-09-16T04:13:50.147Z,174.00
2023-09-16T04:14:52.389Z,174.00
2023-09-16T04:15:55.821Z,174.83
2023-09-16T04:16:57.884Z,175.00
2023-09-16T04:17:59.958Z,176.00
2023-09-16T04:19:02.032Z,176.00
2023-09-16T04:20:07.196Z,176.00
2023-09-16T04:21:09.284Z,176.00
2023-09-16T04:22:11.307Z,176.00
2023-09-16T04:23:13.375Z,176.00
2023-09-16T04:24:15.360Z,175.17
2023-09-16T04:25:17.382Z,175.00
2023-09-16T04:26:21.655Z,174.00
2023-09-16T04:27:23.733Z,173.33
2023-09-16T04:28:25.969Z,173.00
2023-09-16T04:29:28.100Z,173.00
2023-09-16T04:30:30.132Z,172.83
2023-09-16T04:31:32.162Z,172.00
2023-09-16T04:32:34.237Z,172.00
2023-09-16T04:33:36.270Z,171.50
2023-09-16T04:34:38.290Z,171.00
2023-09-16T04:35:50.537Z,171.83
2023-09-16T04:36:56.002Z,172.00
2023-09-16T04:37:58.029Z,172.00
2023-09-16T04:39:00.040Z,172.67
2023-09-16T04:40:09.119Z,174.83
2023-09-16T04:41:11.185Z,177.83
2023-09-16T04:42:13.164Z,180.67
2023-09-16T04:43:15.381Z,181.17
2023-09-16T04:44:17.635Z,182.00
2023-09-16T04:45:19.628Z,182.33
2023-09-16T04:46:21.744Z,183.00
2023-09-16T04:47:24.277Z,183.83
2023-09-16T04:48:26.413Z,184.00
2023-09-16T04:49:28.429Z,183.83
2023-09-16T04:50:30.761Z,182.83
2023-09-16T04:51:34.969Z,182.00
2023-09-16T04:52:37.235Z,181.33
2023-09-16T04:53:39.213Z,180.67
2023-09-16T04:54:42.197Z,179.50
2023-09-16T04:55:44.301Z,178.67
2023-09-16T04:56:46.265Z,177.33
2023-09-16T04:57:48.270Z,175.83
2023-09-16T04:58:51.342Z,174.50
2023-09-16T04:59:53.568Z,173.33
2023-09-16T05:00:55.595Z,173.00
2023-09-16T05:02:00.911Z,173.00
2023-09-16T05:03:03.084Z,172.17
2023-09-16T05:04:05.217Z,172.00
2023-09-16T05:05:07.571Z,172.00
2023-09-16T05:06:09.614Z,172.00
2023-09-16T05:07:11.613Z,173.33
2023-09-16T05:08:13.701Z,175.17
2023-09-16T05:09:15.697Z,176.00
2023-09-16T05:10:17.729Z,176.67
2023-09-16T05:11:19.733Z,177.00
2023-09-16T05:12:21.744Z,177.00
2023-09-16T05:13:23.763Z,177.67
2023-09-16T05:14:25.876Z,180.17
2023-09-16T05:15:27.966Z,181.00
2023-09-16T05:16:30.112Z,181.00
2023-09-16T05:17:32.165Z,181.00
2023-09-16T05:18:34.147Z,180.67
2023-09-16T05:19:36.164Z,179.50
2023-09-16T05:20:38.198Z,178.50
2023-09-16T05:21:40.246Z,178.00
2023-09-16T05:22:42.533Z,178.00
2023-09-16T05:23:44.576Z,178.00
2023-09-16T05:24:46.675Z,178.00
2023-09-16T05:25:49.577Z,178.50
2023-09-16T05:26:51.557Z,181.17
2023-09-16T05:27:53.591Z,183.00
2023-09-16T05:28:57.802Z,184.00
2023-09-16T05:29:59.799Z,183.50
2023-09-16T05:31:03.952Z,183.83
2023-09-16T05:32:06.218Z,180.83
2023-09-16T05:33:08.413Z,177.50
2023-09-16T05:34:10.441Z,174.67
2023-09-16T05:35:12.454Z,169.00
2023-09-16T05:36:14.438Z,167.00
2023-09-16T05:37:16.398Z,167.50
2023-09-16T05:38:18.380Z,168.33
2023-09-16T05:39:20.343Z,167.67
2023-09-16T05:40:22.342Z,162.50
2023-09-16T05:41:24.344Z,162.00
2023-09-16T05:42:26.335Z,162.67
2023-09-16T05:43:28.321Z,162.83
2023-09-16T05:44:30.289Z,160.67
2023-09-16T05:45:32.646Z,161.17
2023-09-16T05:46:34.782Z,161.00
2023-09-16T05:47:36.859Z,154.50
2023-09-16T05:48:38.894Z,150.00
2023-09-16T05:49:40.869Z,137.00
2023-09-16T05:50:42.868Z,145.17
2023-09-16T05:51:45.066Z,147.83
2023-09-16T05:52:47.077Z,149.00
2023-09-16T05:53:49.074Z,149.67
2023-09-16T05:54:51.069Z,150.00
2023-09-16T05:55:54.347Z,149.00
2023-09-16T05:56:56.366Z,149.83
2023-09-16T05:58:01.782Z,150.33
2023-09-16T05:59:04.591Z,151.17
2023-09-16T06:00:07.804Z,152.67
2023-09-16T06:01:09.988Z,154.67
2023-09-16T06:02:12.133Z,156.33
2023-09-16T06:03:14.142Z,157.67
2023-09-16T06:04:16.217Z,158.33
2023-09-16T06:05:18.271Z,159.67
2023-09-16T06:06:20.919Z,160.00
2023-09-16T06:07:26.964Z,158.17
2023-09-16T06:08:29.064Z,152.50
2023-09-16T06:09:31.063Z,143.00
2023-09-16T06:10:33.097Z,139.83
2023-09-16T06:11:35.072Z,130.67
2023-09-16T06:12:37.099Z,132.17
2023-09-16T06:13:39.201Z,136.83
2023-09-16T06:14:41.203Z,139.50
2023-09-16T06:15:45.101Z,140.33
2023-09-16T06:16:47.218Z,135.50
2023-09-16T06:17:49.331Z,134.83
2023-09-16T06:18:51.603Z,134.67
2023-09-16T06:19:55.678Z,135.67
2023-09-16T06:20:57.675Z,139.83
2023-09-16T06:21:59.735Z,148.33
2023-09-16T06:23:04.413Z,149.50
2023-09-16T06:24:06.519Z,151.00
2023-09-16T06:25:08.768Z,141.83
2023-09-16T06:26:11.677Z,141.67
2023-09-16T06:27:15.404Z,118.67
2023-09-16T06:28:17.426Z,99.67
2023-09-16T06:29:19.436Z,111.17
2023-09-16T06:30:21.438Z,117.50
2023-09-16T06:31:23.509Z,119.83
2023-09-16T06:32:25.564Z,121.17
2023-09-16T06:33:27.554Z,122.50
2023-09-16T06:34:29.559Z,120.83
2023-09-16T06:35:31.549Z,111.17
2023-09-16T06:36:33.604Z,108.00
2023-09-16T06:37:35.665Z,85.00
2023-09-16T06:38:37.637Z,74.50
2023-09-16T06:39:41.371Z,76.17
2023-09-16T06:40:43.407Z,73.33
2023-09-16T06:41:45.365Z,76.33
2023-09-16T06:42:50.212Z,79.17
2023-09-16T06:43:52.305Z,79.17
2023-09-16T06:44:56.200Z,75.67
2023-09-16T06:45:58.268Z,71.67
2023-09-16T06:47:00.347Z,58.83
2023-09-16T06:48:02.435Z,58.33
2023-09-16T06:49:04.480Z,69.17
2023-09-16T06:50:09.616Z,72.33
2023-09-16T06:51:11.678Z,74.17
2023-09-16T06:52:13.796Z,69.83
2023-09-16T06:54:22.828Z,32.83
2023-09-16T06:55:24.872Z,64.50
2023-09-16T06:56:26.856Z,79.67
2023-09-16T06:57:28.858Z,85.00
2023-09-16T06:58:31.145Z,95.67
2023-09-16T06:59:33.151Z,100.50
2023-09-16T07:00:36.542Z,98.17
2023-09-16T07:01:38.649Z,90.00
2023-09-16T07:02:40.744Z,103.33
2023-09-16T07:03:42.906Z,111.50
2023-09-16T07:04:46.776Z,105.00
2023-09-16T07:05:49.377Z,94.67
2023-09-16T07:06:51.416Z,98.50
2023-09-16T07:07:54.061Z,90.17
2023-09-16T07:08:56.072Z,100.00
2023-09-16T07:09:58.126Z,122.67
2023-09-16T07:11:00.159Z,111.50
2023-09-16T07:12:02.197Z,96.17
2023-09-16T07:13:04.362Z,83.33
2023-09-16T07:14:06.369Z,83.33
2023-09-16T07:15:08.811Z,102.00
2023-09-16T07:16:12.716Z,117.67
2023-09-16T07:17:14.818Z,117.17
2023-09-16T07:18:16.807Z,109.00
2023-09-16T07:19:18.883Z,113.67
2023-09-16T07:20:20.899Z,104.50
2023-09-16T07:21:22.936Z,122.00
2023-09-16T07:22:26.631Z,122.67
2023-09-16T07:23:28.676Z,114.83
2023-09-16T07:24:30.678Z,111.17
2023-09-16T07:25:32.690Z,85.83
2023-09-16T07:26:34.686Z,88.50
2023-09-16T07:27:36.684Z,106.17
2023-09-16T07:28:38.702Z,110.50
2023-09-16T07:29:40.712Z,107.67
2023-09-16T07:30:42.732Z,98.17
2023-09-16T07:31:44.835Z,100.67
2023-09-16T07:32:47.031Z,103.33
2023-09-16T07:33:49.273Z,89.50
2023-09-16T07:34:51.295Z,93.00
2023-09-16T07:35:54.170Z,93.83
2023-09-16T07:36:57.747Z,93.33
2023-09-16T07:37:59.802Z,89.00
2023-09-16T07:39:01.808Z,96.67
2023-09-16T07:40:04.040Z,113.17
2023-09-16T07:41:06.088Z,104.33
2023-09-16T07:42:08.059Z,99.00
2023-09-16T07:43:12.102Z,91.50
2023-09-16T07:44:14.170Z,97.67
2023-09-16T07:45:16.389Z,142.50
2023-09-16T07:46:18.432Z,127.67
2023-09-16T07:47:20.502Z,114.17
2023-09-16T07:48:22.512Z,84.50
2023-09-16T07:49:24.520Z,89.83
2023-09-16T07:50:26.542Z,103.67
2023-09-16T07:51:28.522Z,112.17
2023-09-16T07:52:31.192Z,105.50
2023-09-16T07:53:33.200Z,86.33
2023-09-16T07:54:35.268Z,207.00
2023-09-16T07:55:37.290Z,259.33
2023-09-16T07:56:39.264Z,207.17
2023-09-16T07:57:41.359Z,187.50
2023-09-16T07:58:43.446Z,169.33
2023-09-16T07:59:45.451Z,128.67
2023-09-16T08:00:47.543Z,233.17
2023-09-16T08:01:49.729Z,221.83
2023-09-16T08:02:51.919Z,256.00
2023-09-16T08:03:54.161Z,275.00
2023-09-16T08:04:56.429Z,281.00
2023-09-16T08:05:59.149Z,261.00
2023-09-16T08:07:01.167Z,229.83
2023-09-16T08:08:03.815Z,233.33
2023-09-16T08:09:05.834Z,228.17
2023-09-16T08:10:08.225Z,186.17
2023-09-16T08:11:10.327Z,168.50
2023-09-16T08:12:12.419Z,128.33
2023-09-16T08:13:14.472Z,77.83
2023-09-16T08:14:16.483Z,101.83
2023-09-16T08:15:18.469Z,183.50
2023-09-16T08:16:20.541Z,212.17
2023-09-16T08:17:22.532Z,183.00
2023-09-16T08:18:24.527Z,143.17
2023-09-16T08:19:26.581Z,152.33
2023-09-16T08:20:30.098Z,184.67
2023-09-16T08:21:32.146Z,135.50
2023-09-16T08:22:34.180Z,124.83
2023-09-16T08:23:36.244Z,110.00
2023-09-16T08:24:38.218Z,114.50
2023-09-16T08:25:40.223Z,122.83
2023-09-16T08:26:42.259Z,139.17
2023-09-16T08:27:44.277Z,101.33
2023-09-16T08:28:46.330Z,98.83
2023-09-16T08:29:50.771Z,93.83
2023-09-16T08:30:52.872Z,79.67
2023-09-16T08:31:54.986Z,95.83
2023-09-16T08:32:57.154Z,94.67
2023-09-16T08:34:02.037Z,109.00
2023-09-16T08:35:04.114Z,161.50
2023-09-16T08:36:06.208Z,191.17
2023-09-16T08:37:09.814Z,179.17
2023-09-16T08:38:12.056Z,156.50
2023-09-16T08:39:14.085Z,115.50
2023-09-16T08:40:16.702Z,107.83
2023-09-16T08:41:22.065Z,122.00
2023-09-16T08:42:52.291Z,108.00
2023-09-16T08:43:54.963Z,91.50
2023-09-16T08:44:57.420Z,113.50
2023-09-16T08:46:03.477Z,124.67
2023-09-16T08:47:11.576Z,174.67
2023-09-16T08:48:15.956Z,262.00
2023-09-16T08:49:18.238Z,282.17
2023-09-16T08:50:22.488Z,282.67
2023-09-16T08:51:24.477Z,240.67
2023-09-16T08:52:26.650Z,196.50
2023-09-16T08:53:29.773Z,176.50
2023-09-16T08:54:31.785Z,238.50
2023-09-16T08:55:36.283Z,266.67
2023-09-16T08:56:38.299Z,242.67
2023-09-16T08:57:56.020Z,220.50
2023-09-16T08:58:58.043Z,218.17
2023-09-16T09:00:00.077Z,225.00
2023-09-16T09:01:04.007Z,236.33
2023-09-16T09:02:06.309Z,254.33
2023-09-16T09:03:08.384Z,209.00
2023-09-16T09:04:10.843Z,143.83
2023-09-16T09:05:13.005Z,163.67
2023-09-16T09:06:23.346Z,198.50
2023-09-16T09:07:33.618Z,245.50
2023-09-16T09:08:35.672Z,267.50
2023-09-16T09:09:37.681Z,287.67
2023-09-16T09:10:41.005Z,219.67
2023-09-16T09:11:44.621Z,192.83
2023-09-16T09:12:48.163Z,191.17
2023-09-16T09:13:50.265Z,145.17
2023-09-16T09:14:52.240Z,132.17
2023-09-16T09:15:57.848Z,152.50
2023-09-16T09:17:01.715Z,178.17
2023-09-16T09:18:03.999Z,166.67
2023-09-16T09:19:06.072Z,120.50
2023-09-16T09:20:21.397Z,89.83
2023-09-16T09:21:23.380Z,122.50
2023-09-16T09:22:25.403Z,141.50
2023-09-16T09:23:27.411Z,115.83
2023-09-16T09:24:29.499Z,103.00
2023-09-16T09:25:34.035Z,92.67
2023-09-16T09:26:36.063Z,78.83
2023-09-16T09:27:38.038Z,68.83
2023-09-16T09:28:39.999Z,61.33
2023-09-16T09:29:42.056Z,62.00
2023-09-16T09:30:44.146Z,80.67
2023-09-16T09:31:46.820Z,91.33
2023-09-16T09:32:48.912Z,100.83
2023-09-16T09:33:51.254Z,107.83
2023-09-16T09:34:53.232Z,102.50
2023-09-16T09:36:13.873Z,83.67
2023-09-16T09:37:16.782Z,80.00
2023-09-16T09:38:19.211Z,72.33
2023-09-16T09:39:21.228Z,62.33
2023-09-16T09:40:23.235Z,63.00
2023-09-16T09:41:25.272Z,81.00
2023-09-16T09:42:27.276Z,96.33
2023-09-16T09:43:32.682Z,98.50
2023-09-16T09:44:35.724Z,118.67
2023-09-16T09:45:38.995Z,153.33
2023-09-16T09:46:41.181Z,216.67
2023-09-16T09:47:43.375Z,249.17
2023-09-16T09:48:45.541Z,200.00
2023-09-16T09:49:48.810Z,168.83
2023-09-16T09:50:51.031Z,178.33
2023-09-16T09:51:53.137Z,163.17
2023-09-16T09:52:55.828Z,82.67
2023-09-16T09:53:57.868Z,66.00
2023-09-16T09:55:01.753Z,78.83
2023-09-16T09:56:04.880Z,75.67
2023-09-16T09:57:06.996Z,80.00
2023-09-16T09:58:09.049Z,93.67
2023-09-16T09:59:11.166Z,95.83
2023-09-16T10:00:17.700Z,85.00
2023-09-16T10:01:19.784Z,93.83
2023-09-16T10:02:27.774Z,95.50
2023-09-16T10:03:29.991Z,99.33
2023-09-16T10:04:32.136Z,89.00
2023-09-16T10:05:36.339Z,89.67
2023-09-16T10:06:38.335Z,76.67
2023-09-16T10:07:42.977Z,59.17
2023-09-16T10:08:45.057Z,57.50
2023-09-16T10:09:47.131Z,64.17
2023-09-16T10:10:49.444Z,60.33
2023-09-16T10:11:52.241Z,41.17
2023-09-16T10:12:57.558Z,60.17
2023-09-16T10:14:00.752Z,108.00
2023-09-16T10:15:05.791Z,105.00
2023-09-16T10:16:07.838Z,91.00
2023-09-16T10:17:11.588Z,86.17
2023-09-16T10:18:14.827Z,90.50
2023-09-16T10:19:16.886Z,69.67
2023-09-16T10:20:19.007Z,54.17
2023-09-16T10:21:20.998Z,63.83
2023-09-16T10:22:23.118Z,66.33
2023-09-16T10:23:25.220Z,54.17
2023-09-16T10:24:27.197Z,52.50
2023-09-16T10:25:31.521Z,46.33
2023-09-16T10:26:35.934Z,26.00
2023-09-16T10:27:45.992Z,29.33
2023-09-16T10:28:50.154Z,32.50
2023-09-16T10:29:52.367Z,41.67
2023-09-16T10:30:54.409Z,46.00
2023-09-16T10:31:56.441Z,54.83
2023-09-16T10:33:16.107Z,53.17
2023-09-16T10:34:18.191Z,51.83
2023-09-16T10:35:21.003Z,40.83
2023-09-16T10:36:23.128Z,34.83
2023-09-16T10:37:25.214Z,34.17
2023-09-16T10:38:27.325Z,37.50
2023-09-16T10:39:29.320Z,30.17
2023-09-16T10:40:31.577Z,23.17
2023-09-16T10:41:34.552Z,20.17
2023-09-16T10:42:36.576Z,25.17
2023-09-16T10:43:38.577Z,27.00
2023-09-16T10:44:41.176Z,22.50
2023-09-16T10:45:43.214Z,21.50
2023-09-16T10:46:45.562Z,21.33
2023-09-16T10:47:47.996Z,23.33
2023-09-16T10:48:53.239Z,24.00
2023-09-16T10:49:55.641Z,23.00
2023-09-16T10:50:59.062Z,23.33
2023-09-16T10:52:03.959Z,25.50
2023-09-16T10:53:37.858Z,31.50
2023-09-16T10:54:45.230Z,34.83
2023-09-16T10:56:26.579Z,37.67
2023-09-16T10:57:34.919Z,50.00
2023-09-16T10:58:50.088Z,46.67
2023-09-16T10:59:53.051Z,35.83
2023-09-16T11:00:56.110Z,26.33
2023-09-16T11:02:00.989Z,27.50
2023-09-16T11:03:03.098Z,28.00
2023-09-16T11:04:10.962Z,28.33
2023-09-16T11:05:13.026Z,32.00
2023-09-16T11:06:15.007Z,38.83
2023-09-16T11:07:16.997Z,69.83
2023-09-16T11:08:19.008Z,76.33
2023-09-16T11:09:25.019Z,58.67
2023-09-16T11:10:27.024Z,57.67
2023-09-16T11:11:29.016Z,77.67
2023-09-16T11:12:31.103Z,82.83
2023-09-16T11:13:33.115Z,60.83
2023-09-16T11:14:35.123Z,45.50
2023-09-16T11:15:37.307Z,32.17
2023-09-16T11:16:46.179Z,36.67
2023-09-16T11:17:49.049Z,73.17
2023-09-16T11:18:52.446Z,83.33
2023-09-16T11:19:55.077Z,94.33
2023-09-16T11:20:57.054Z,80.67
2023-09-16T11:21:59.555Z,77.83
2023-09-16T11:23:08.044Z,78.83
2023-09-16T11:24:10.757Z,86.17
2023-09-16T11:25:12.903Z,98.67
2023-09-16T11:26:24.060Z,86.50
2023-09-16T11:27:26.401Z,90.17
2023-09-16T11:28:29.539Z,89.17
2023-09-16T11:29:34.727Z,83.50
2023-09-16T11:30:37.236Z,90.83
2023-09-16T11:31:39.481Z,114.00
2023-09-16T11:33:02.467Z,114.17
2023-09-16T11:34:04.489Z,95.17
2023-09-16T11:35:06.659Z,71.33
2023-09-16T11:36:08.914Z,56.17
2023-09-16T11:37:10.969Z,57.83
2023-09-16T11:38:13.168Z,50.33
2023-09-16T11:39:19.584Z,50.67
2023-09-16T11:40:28.241Z,58.17
2023-09-16T11:41:30.248Z,60.00
2023-09-16T11:42:32.219Z,61.33
2023-09-16T11:43:34.244Z,59.00
2023-09-16T11:44:37.035Z,45.83
2023-09-16T11:45:39.079Z,44.17
2023-09-16T11:46:41.452Z,49.83
2023-09-16T11:47:43.510Z,55.50
2023-09-16T11:48:49.887Z,58.67
2023-09-16T11:49:52.125Z,64.67
2023-09-16T11:50:54.132Z,36.67
2023-09-16T11:51:56.347Z,27.33
2023-09-16T11:52:58.412Z,30.50
2023-09-16T11:54:00.446Z,32.50
2023-09-16T11:55:02.676Z,40.67
2023-09-16T11:56:05.400Z,50.33
2023-09-16T11:57:07.454Z,32.50
2023-09-16T11:58:09.429Z,20.50
2023-09-16T11:59:11.823Z,27.33
2023-09-16T12:00:14.202Z,26.17
2023-09-16T12:01:23.531Z,28.00
2023-09-16T12:02:25.648Z,28.33
2023-09-16T12:03:27.720Z,27.17
2023-09-16T12:04:29.768Z,29.00
2023-09-16T12:05:31.801Z,31.00
2023-09-16T12:06:36.286Z,27.50
2023-09-16T12:07:38.517Z,26.67
2023-09-16T12:08:41.115Z,30.33
2023-09-16T12:09:43.139Z,52.00
2023-09-16T12:10:45.124Z,88.83
2023-09-16T12:11:51.625Z,127.17
2023-09-16T12:12:53.701Z,76.67
2023-09-16T12:13:56.249Z,41.67
2023-09-16T12:15:00.614Z,25.33
2023-09-16T12:16:02.689Z,51.00
2023-09-16T12:17:04.819Z,79.83
2023-09-16T12:18:07.883Z,41.67
2023-09-16T12:19:12.741Z,30.83
2023-09-16T12:20:14.850Z,23.33
2023-09-16T12:21:16.827Z,16.17
2023-09-16T12:22:19.821Z,21.67
2023-09-16T12:23:21.863Z,29.17
2023-09-16T12:24:25.489Z,41.33
2023-09-16T12:25:28.249Z,63.50
2023-09-16T12:26:30.352Z,66.67
2023-09-16T12:27:32.324Z,25.67
2023-09-16T12:28:34.355Z,16.33
2023-09-16T12:29:36.396Z,19.83
2023-09-16T12:30:46.617Z,24.33
2023-09-16T12:31:48.874Z,47.50
2023-09-16T12:32:52.329Z,64.50
2023-09-16T12:33:57.087Z,39.50
2023-09-16T12:35:10.086Z,16.83
2023-09-16T12:36:28.599Z,14.67
2023-09-16T12:37:30.825Z,19.67
2023-09-16T12:38:35.922Z,18.67
2023-09-16T12:39:37.912Z,12.67
2023-09-16T12:40:39.936Z,14.83
2023-09-16T12:41:44.536Z,16.50
2023-09-16T12:42:46.531Z,21.50
2023-09-16T12:43:48.499Z,27.50
2023-09-16T12:44:50.484Z,24.00
2023-09-16T12:45:52.547Z,15.83
2023-09-16T12:46:54.611Z,14.50
2023-09-16T12:47:56.980Z,15.17
2023-09-16T12:48:59.110Z,16.00
2023-09-16T12:50:01.119Z,15.00
2023-09-16T12:51:03.124Z,15.00
2023-09-16T12:52:05.331Z,13.83
2023-09-16T12:53:07.346Z,13.00
2023-09-16T12:54:09.365Z,13.17
2023-09-16T12:55:12.736Z,14.00
2023-09-16T12:56:20.580Z,13.00
2023-09-16T12:57:24.001Z,12.33
2023-09-16T12:58:26.095Z,12.00
2023-09-16T12:59:28.198Z,12.33
2023-09-16T13:00:30.178Z,18.17
2023-09-16T13:01:32.378Z,29.33
2023-09-16T13:02:37.830Z,41.83
2023-09-16T13:03:39.986Z,44.33
2023-09-16T13:04:42.029Z,33.67
2023-09-16T13:05:52.017Z,16.17
2023-09-16T13:06:54.458Z,8.17
2023-09-16T13:07:58.284Z,8.83
2023-09-16T13:09:00.610Z,7.00
2023-09-16T13:10:02.649Z,5.33
2023-09-16T13:11:04.698Z,6.33
2023-09-16T13:12:06.699Z,7.17
2023-09-16T13:13:08.699Z,8.00
2023-09-16T13:14:13.146Z,7.33
2023-09-16T13:15:21.798Z,6.00
2023-09-16T13:16:26.661Z,5.00